Aitkin, Minnesota
Current Conditions -  °F | °C
As of 5:13 AM on Saturday 25 Oct 2014 (Local Time) from KAIT Reporting Station
Clear Clear  
Wind Chill: 50°   Ceiling: Unl
Heat Index: 50°   Visibility: 10mi
Dew Point: 34°   Wind: 5mph
Humidity: 54%   Direction: 250°WSW
Pressure: 29.91"   Gusts: NA
Location:  46.53°N, 93.71°W
Report Text: KAIT 251013Z AUTO 25004KT 10SM CLR 10/01 A2991 RMK AO2
Loading
Personal Weather Stations






























Interactive Weather Map New forecast layout! Learn more

10-Day Weather Forecast

Advertisements
Track Severe Weather on mobile